Time;durP1;ratioP1;P1;durP2;ratioP2;P2;SDS_P1;SDS_P2;PMS_P1;PMS_P2;Temp;Humidity;BMP_temperature;BMP_pressure;BME280_temperature;BME280_humidity;BME280_pressure;Samples;Min_cycle;Max_cycle;Signal;HPM_P1;HPM_P2
2023/10/24 00:01:34;;;;;;;10.38;5.57;;;;;;;8.28;100.00;100907.63;6094446;23;20055;-76
2023/10/24 00:04:00;;;;;;;10.65;6.88;;;;;;;8.28;100.00;100896.94;6118969;23;20009;-74
2023/10/24 00:06:26;;;;;;;8.32;6.20;;;;;;;8.32;100.00;100882.03;6070479;23;20515;-74
2023/10/24 00:08:53;;;;;;;9.27;5.55;;;;;;;8.35;100.00;100870.91;6094912;23;20009;-76
2023/10/24 00:11:18;;;;;;;8.25;6.13;;;;;;;8.38;100.00;100870.38;6093933;23;20017;-75
2023/10/24 00:13:44;;;;;;;8.52;6.28;;;;;;;8.41;100.00;100874.44;6095641;23;20107;-75
2023/10/24 00:16:12;;;;;;;9.93;6.32;;;;;;;8.44;100.00;100873.91;6094507;23;20009;-76
2023/10/24 00:18:38;;;;;;;8.93;6.13;;;;;;;8.43;100.00;100873.09;6095846;23;20017;-78
2023/10/24 00:21:03;;;;;;;10.20;6.38;;;;;;;8.42;100.00;100868.81;6093928;23;20017;-74
2023/10/24 00:23:29;;;;;;;10.60;6.88;;;;;;;8.47;100.00;100868.09;6095256;23;20021;-76
2023/10/24 00:25:56;;;;;;;9.98;6.10;;;;;;;8.51;100.00;100876.38;6070397;23;20017;-77
2023/10/24 00:28:22;;;;;;;9.80;6.65;;;;;;;8.51;100.00;100865.69;6095862;23;20013;-76
2023/10/24 00:30:47;;;;;;;10.82;6.78;;;;;;;8.53;100.00;100860.91;6070926;23;20356;-76
2023/10/24 00:33:13;;;;;;;11.65;7.85;;;;;;;8.55;100.00;100866.81;6095229;23;20056;-74
2023/10/24 00:35:40;;;;;;;9.32;7.28;;;;;;;8.56;100.00;100861.22;6093389;23;20018;-75
2023/10/24 00:38:06;;;;;;;10.93;7.65;;;;;;;8.59;100.00;100857.22;6118940;23;20088;-76
2023/10/24 00:40:33;;;;;;;11.20;8.00;;;;;;;8.59;100.00;100854.56;6069813;23;20192;-78
2023/10/24 00:43:06;;;;;;;10.45;7.07;;;;;;;8.60;100.00;100840.97;6071266;23;20020;-79
2023/10/24 00:45:35;;;;;;;10.20;7.38;;;;;;;8.64;100.00;100847.41;6096435;23;20104;-75
2023/10/24 00:48:04;;;;;;;9.02;7.10;;;;;;;8.66;100.00;100847.16;6073396;23;20013;-77
2023/10/24 00:50:31;;;;;;;13.45;7.60;;;;;;;8.67;100.00;100846.09;6071769;23;20021;-75
2023/10/24 00:52:58;;;;;;;10.93;7.82;;;;;;;8.68;100.00;100837.03;6071744;23;20655;-73
2023/10/24 00:55:24;;;;;;;13.77;7.55;;;;;;;8.70;100.00;100834.91;6047577;23;20027;-74
2023/10/24 00:57:51;;;;;;;9.82;7.18;;;;;;;8.70;100.00;100830.38;6097326;23;20100;-75
2023/10/24 01:00:19;;;;;;;12.18;8.20;;;;;;;8.73;100.00;100824.50;6095156;23;20104;-74
2023/10/24 01:02:45;;;;;;;11.65;7.03;;;;;;;8.74;100.00;100820.00;6096712;23;20049;-76
2023/10/24 01:05:12;;;;;;;12.43;8.25;;;;;;;8.76;100.00;100817.88;6096028;23;20093;-74
2023/10/24 01:07:38;;;;;;;12.93;8.10;;;;;;;8.77;100.00;100811.47;6120604;23;20041;-75
2023/10/24 01:10:05;;;;;;;11.77;8.43;;;;;;;8.80;100.00;100818.16;6095984;23;20014;-74
2023/10/24 01:12:33;;;;;;;12.98;7.70;;;;;;;8.80;100.00;100821.63;6120918;23;20021;-74
2023/10/24 01:14:59;;;;;;;10.30;7.15;;;;;;;8.83;100.00;100815.78;6072235;23;20068;-74
2023/10/24 01:17:25;;;;;;;12.23;7.22;;;;;;;8.83;100.00;100802.44;6120774;23;20045;-73
2023/10/24 01:19:51;;;;;;;11.27;7.43;;;;;;;8.84;100.00;100797.91;6072871;23;20051;-76
2023/10/24 01:22:17;;;;;;;12.60;8.40;;;;;;;8.84;100.00;100796.03;6072286;23;20021;-74
2023/10/24 01:24:44;;;;;;;11.93;7.55;;;;;;;8.87;100.00;100792.84;6097968;23;20021;-78
2023/10/24 01:27:11;;;;;;;11.73;8.68;;;;;;;8.88;100.00;100793.66;6096684;23;20040;-78
2023/10/24 01:29:37;;;;;;;13.50;8.18;;;;;;;8.86;100.00;100791.22;6121441;23;20009;-75
2023/10/24 01:32:03;;;;;;;13.65;8.95;;;;;;;8.86;100.00;100791.22;6120321;23;20049;-76
2023/10/24 01:34:29;;;;;;;13.48;8.05;;;;;;;8.89;100.00;100790.72;6096536;23;20022;-74
2023/10/24 01:36:56;;;;;;;12.55;7.95;;;;;;;8.91;100.00;100783.25;6146219;23;20778;-78
2023/10/24 01:39:22;;;;;;;10.85;7.18;;;;;;;8.93;100.00;100786.47;6096121;23;20089;-76
2023/10/24 01:41:48;;;;;;;12.60;7.60;;;;;;;8.95;100.00;100789.72;6070759;23;20021;-73
2023/10/24 01:44:13;;;;;;;13.55;8.23;;;;;;;8.96;100.00;100780.63;6119940;23;20009;-74
2023/10/24 01:46:39;;;;;;;13.43;7.90;;;;;;;8.96;100.00;100783.28;6095188;23;20022;-76
2023/10/24 01:49:06;;;;;;;;;;;;;;;8.98;100.00;100778.50;6071225;23;20032;-75
2023/10/24 01:51:31;;;;;;;11.55;7.43;;;;;;;8.96;100.00;100775.28;6070252;23;19912;-73
2023/10/24 01:53:58;;;;;;;12.55;6.75;;;;;;;8.99;100.00;100773.94;6118108;23;20068;-76
2023/10/24 01:56:25;;;;;;;11.10;7.38;;;;;;;8.97;100.00;100766.22;6070244;23;20017;-76
2023/10/24 01:58:51;;;;;;;9.85;6.95;;;;;;;9.00;100.00;100776.34;6071338;23;20109;-73
2023/10/24 02:01:18;;;;;;;12.07;7.63;;;;;;;9.01;100.00;100761.97;6118331;23;20021;-75
2023/10/24 02:03:45;;;;;;;10.57;7.03;;;;;;;9.02;100.00;100760.09;6120200;23;20072;-78
2023/10/24 02:06:12;;;;;;;12.35;7.57;;;;;;;9.03;100.00;100754.50;6068791;23;20826;-75
2023/10/24 02:08:38;;;;;;;12.00;6.95;;;;;;;9.04;100.00;100739.25;6095484;23;20476;-76
2023/10/24 02:11:04;;;;;;;12.38;7.72;;;;;;;9.03;100.00;100733.13;6093603;23;20021;-73
2023/10/24 02:13:30;;;;;;;10.10;6.63;;;;;;;9.03;100.00;100730.44;6070929;23;20032;-75
2023/10/24 02:15:55;;;;;;;10.15;6.60;;;;;;;9.03;100.00;100721.63;6094539;23;20017;-75
2023/10/24 02:18:21;;;;;;;12.27;7.57;;;;;;;9.01;100.00;100715.75;6119465;23;20006;-78
2023/10/24 02:20:47;;;;;;;10.07;6.53;;;;;;;9.00;100.00;100706.91;6071168;23;20029;-75
2023/10/24 02:23:14;;;;;;;11.57;8.32;;;;;;;9.00;100.00;100701.56;6070825;23;20052;-74
2023/10/24 02:25:39;;;;;;;11.48;7.28;;;;;;;9.01;100.00;100691.72;6070450;23;20444;-74
2023/10/24 02:28:05;;;;;;;12.95;7.85;;;;;;;9.01;100.00;100681.81;6094672;23;20015;-75
2023/10/24 02:30:30;;;;;;;11.18;7.53;;;;;;;9.02;100.00;100666.59;6071088;23;20013;-76
2023/10/24 02:33:00;;;;;;;12.93;6.82;;;;;;;9.03;100.00;100663.66;6094163;23;20415;-77
2023/10/24 02:35:27;;;;;;;11.63;7.93;;;;;;;9.06;100.00;100656.19;6069640;23;20109;-78
2023/10/24 02:37:53;;;;;;;12.80;7.40;;;;;;;9.07;100.00;100644.44;6071760;23;20360;-76
2023/10/24 02:40:19;;;;;;;10.85;8.07;;;;;;;9.10;100.00;100644.72;6069208;23;20017;-76
2023/10/24 02:42:45;;;;;;;11.98;7.32;;;;;;;9.13;100.00;100652.19;6093473;23;20076;-74
2023/10/24 02:45:11;;;;;;;12.88;7.88;;;;;;;9.15;100.00;100654.63;6068905;23;20395;-74
2023/10/24 02:47:37;;;;;;;10.40;7.25;;;;;;;9.18;100.00;100670.94;6091490;23;20013;-73
2023/10/24 02:50:04;;;;;;;13.70;8.15;;;;;;;9.20;100.00;100665.31;6070376;23;20018;-76
2023/10/24 02:52:30;;;;;;;11.02;7.43;;;;;;;9.24;100.00;100669.09;6093614;23;20021;-74
2023/10/24 02:54:57;;;;;;;10.02;7.30;;;;;;;9.27;100.00;100663.19;6118534;23;20212;-75
2023/10/24 02:57:22;;;;;;;9.50;7.30;;;;;;;9.32;100.00;100671.25;6118431;23;20024;-74
2023/10/24 02:59:49;;;;;;;10.52;7.28;;;;;;;9.34;100.00;100669.09;6094096;23;20040;-74
2023/10/24 03:02:14;;;;;;;10.10;7.53;;;;;;;9.33;100.00;100662.16;6092968;23;20021;-73
2023/10/24 03:04:40;;;;;;;10.02;6.90;;;;;;;9.36;100.00;100650.16;6094174;23;20539;-75
2023/10/24 03:07:06;;;;;;;10.45;6.70;;;;;;;9.37;100.00;100636.53;6069540;23;20013;-78
2023/10/24 03:09:33;;;;;;;14.50;8.48;;;;;;;9.36;100.00;100629.56;6095185;23;20017;-75
2023/10/24 03:11:58;;;;;;;10.23;7.20;;;;;;;9.38;100.00;100622.09;6069861;23;20020;-76
2023/10/24 03:14:27;;;;;;;10.90;6.90;;;;;;;9.36;100.00;100613.53;6093816;23;20015;-77
2023/10/24 03:16:55;;;;;;;11.80;7.97;;;;;;;9.39;100.00;100614.88;6118387;23;20048;-76
2023/10/24 03:19:21;;;;;;;12.65;8.15;;;;;;;9.34;100.00;100612.97;6069398;23;20017;-77
2023/10/24 03:21:47;;;;;;;14.32;8.90;;;;;;;9.38;100.00;100611.41;6093618;23;20032;-77
2023/10/24 03:24:12;;;;;;;12.73;7.65;;;;;;;9.40;100.00;100600.44;6070264;23;20351;-76
2023/10/24 03:26:38;;;;;;;11.50;7.50;;;;;;;9.41;100.00;100594.81;6070143;23;20047;-77
2023/10/24 03:29:03;;;;;;;10.45;6.88;;;;;;;9.39;100.00;100599.63;6117788;23;20013;-76
2023/10/24 03:31:30;;;;;;;10.02;7.65;;;;;;;9.41;100.00;100600.16;6117315;23;20108;-74
2023/10/24 03:33:56;;;;;;;12.60;7.78;;;;;;;9.42;100.00;100601.00;6095107;23;20020;-75
2023/10/24 03:36:22;;;;;;;10.07;7.57;;;;;;;9.41;100.00;100605.50;6092133;23;20021;-76
2023/10/24 03:38:47;;;;;;;10.48;7.60;;;;;;;9.43;100.00;100602.59;6093864;23;20022;-74
2023/10/24 03:41:13;;;;;;;11.52;7.80;;;;;;;9.44;100.00;100604.19;6091561;23;20021;-75
2023/10/24 03:43:39;;;;;;;10.02;7.57;;;;;;;9.44;100.00;100605.00;6146196;23;20072;-74
2023/10/24 03:46:06;;;;;;;15.07;7.63;;;;;;;9.46;100.00;100600.19;6119304;23;20033;-77
2023/10/24 03:48:32;;;;;;;11.07;7.40;;;;;;;9.48;100.00;100598.06;6096647;23;20021;-73
2023/10/24 03:51:01;;;;;;;12.93;8.35;;;;;;;9.50;100.00;100598.59;6095766;23;20040;-74
2023/10/24 03:53:27;;;;;;;12.60;8.40;;;;;;;9.49;100.00;100593.50;6071815;23;20017;-75
2023/10/24 03:56:00;;;;;;;12.18;8.30;;;;;;;9.50;100.00;100577.19;6094712;23;20017;-75
2023/10/24 03:58:27;;;;;;;18.38;9.43;;;;;;;9.53;100.00;100570.50;6096881;23;20009;-73
2023/10/24 04:00:53;;;;;;;11.80;7.25;;;;;;;9.54;100.00;100567.56;6146796;23;20021;-74
2023/10/24 04:03:20;;;;;;;13.50;7.85;;;;;;;9.54;100.00;100567.56;6095976;23;20045;-74
2023/10/24 04:05:46;;;;;;;13.18;8.52;;;;;;;9.55;100.00;100557.66;6146238;23;20017;-74
2023/10/24 04:08:11;;;;;;;12.23;7.80;;;;;;;9.55;100.00;100553.16;6120118;23;20340;-74
2023/10/24 04:10:37;;;;;;;13.00;8.75;;;;;;;9.55;100.00;100553.16;6096555;23;20087;-74
2023/10/24 04:13:03;;;;;;;11.50;8.52;;;;;;;9.55;100.00;100552.31;6146379;23;20048;-75
2023/10/24 04:15:29;;;;;;;12.57;9.00;;;;;;;9.55;100.00;100563.84;6096048;23;20017;-74
2023/10/24 04:17:56;;;;;;;12.52;7.60;;;;;;;9.57;100.00;100552.88;6074497;23;20025;-74
2023/10/24 04:20:21;;;;;;;15.00;9.30;;;;;;;9.57;100.00;100552.88;6073135;23;20021;-74
2023/10/24 04:22:47;;;;;;;12.10;8.73;;;;;;;9.58;100.00;100546.47;6122435;23;20185;-74
2023/10/24 04:25:13;;;;;;;15.05;8.50;;;;;;;9.61;100.00;100550.47;6073071;23;20084;-75
2023/10/24 04:27:38;;;;;;;14.65;7.18;;;;;;;9.62;100.00;100546.72;6123197;23;20605;-73
2023/10/24 04:30:06;;;;;;;14.18;8.90;;;;;;;9.63;100.00;100556.34;6098555;23;20017;-73
2023/10/24 04:32:31;;;;;;;10.55;7.68;;;;;;;9.64;100.00;100544.59;6121784;23;20523;-75
2023/10/24 04:34:57;;;;;;;11.50;8.30;;;;;;;9.65;100.00;100536.28;6122374;23;20021;-73
2023/10/24 04:37:23;;;;;;;10.70;7.40;;;;;;;9.65;100.00;100538.16;6121907;23;20491;-73
2023/10/24 04:39:49;;;;;;;11.57;7.57;;;;;;;9.65;100.00;100530.94;6149129;23;20423;-74
2023/10/24 04:42:15;;;;;;;;;;;;;;;9.65;100.00;100530.94;6121189;23;20009;-72
2023/10/24 04:44:41;;;;;;;12.68;7.47;;;;;;;9.64;100.00;100518.66;6098027;23;19928;-73
2023/10/24 04:47:06;;;;;;;13.25;7.80;;;;;;;9.65;100.00;100514.09;6148994;23;20017;-74
2023/10/24 04:49:32;;;;;;;11.05;7.53;;;;;;;9.66;100.00;100510.34;6121271;23;20028;-74
2023/10/24 04:51:57;;;;;;;12.23;7.78;;;;;;;9.66;100.00;100521.84;6122141;23;20009;-77
2023/10/24 04:54:23;;;;;;;9.32;7.07;;;;;;;9.66;100.00;100519.19;6098489;23;20017;-77
2023/10/24 04:56:49;;;;;;;14.23;7.90;;;;;;;9.66;100.00;100515.72;6122196;23;20025;-75
2023/10/24 04:59:14;;;;;;;12.07;7.32;;;;;;;9.65;100.00;100522.13;6098413;23;20044;-77
2023/10/24 05:01:40;;;;;;;12.45;7.75;;;;;;;9.63;100.00;100522.41;6098373;23;20411;-77
2023/10/24 05:04:06;;;;;;;10.98;7.78;;;;;;;9.64;100.00;100523.19;6051191;23;20032;-76
2023/10/24 05:06:32;;;;;;;11.63;7.85;;;;;;;9.62;100.00;100525.31;6097714;23;20132;-77
2023/10/24 05:08:59;;;;;;;14.80;8.38;;;;;;;9.58;100.00;100520.53;6099397;23;20037;-74
2023/10/24 05:11:25;;;;;;;13.73;8.85;;;;;;;9.56;100.00;100509.31;6121586;23;20092;-78
2023/10/24 05:13:51;;;;;;;10.55;7.93;;;;;;;9.56;100.00;100495.94;6098471;23;20041;-74
2023/10/24 05:16:17;;;;;;;15.10;8.63;;;;;;;9.55;100.00;100489.00;6073874;23;20669;-73
2023/10/24 05:18:43;;;;;;;14.85;8.70;;;;;;;9.55;100.00;100499.69;6149783;23;20009;-79
2023/10/24 05:21:08;;;;;;;14.10;8.52;;;;;;;9.54;100.00;100490.03;6097347;23;20025;-78
2023/10/24 05:23:34;;;;;;;13.95;9.05;;;;;;;9.53;100.00;100483.09;6074336;23;20013;-75
2023/10/24 05:26:00;;;;;;;14.75;9.38;;;;;;;9.54;100.00;100495.38;6097310;23;20069;-78
2023/10/24 05:28:26;;;;;;;15.38;9.00;;;;;;;9.54;100.00;100491.91;6050312;23;20456;-79
2023/10/24 05:30:51;;;;;;;14.65;8.52;;;;;;;9.54;100.00;100492.72;6097500;23;20333;-78
2023/10/24 05:33:17;;;;;;;12.80;8.57;;;;;;;9.54;100.00;100487.38;6074583;23;20515;-74
2023/10/24 05:35:47;;;;;;;15.55;9.65;;;;;;;9.52;100.00;100497.53;6122056;23;20014;-74
2023/10/24 05:38:13;;;;;;;14.88;9.35;;;;;;;9.52;100.00;100510.91;6148989;23;20016;-75
2023/10/24 05:40:40;;;;;;;11.95;8.27;;;;;;;9.54;100.00;100508.75;6121473;23;20025;-76
2023/10/24 05:43:06;;;;;;;17.92;8.48;;;;;;;9.55;100.00;100505.03;6074919;23;20144;-75
2023/10/24 05:45:32;;;;;;;14.77;8.93;;;;;;;9.54;100.00;100500.72;6122034;23;20014;-75
2023/10/24 05:47:58;;;;;;;12.88;8.32;;;;;;;9.52;100.00;100510.09;6098592;23;20021;-77
2023/10/24 05:50:26;;;;;;;15.60;9.68;;;;;;;9.52;100.00;100515.44;6096956;23;20017;-77
2023/10/24 05:52:52;;;;;;;15.23;8.90;;;;;;;9.52;100.00;100505.56;6148975;23;20033;-75
2023/10/24 05:55:18;;;;;;;12.48;8.85;;;;;;;9.52;100.00;100502.06;6072514;23;20502;-74
2023/10/24 05:57:43;;;;;;;15.57;10.27;;;;;;;9.49;100.00;100503.44;6097642;23;20018;-75
2023/10/24 06:00:09;;;;;;;16.33;9.60;;;;;;;9.48;100.00;100493.81;6097291;23;20017;-75
2023/10/24 06:02:35;;;;;;;17.30;10.38;;;;;;;9.49;100.00;100490.06;6120339;23;20018;-74
2023/10/24 06:05:02;;;;;;;15.77;9.50;;;;;;;9.48;100.00;100485.78;6073988;23;20015;-75
2023/10/24 06:07:29;;;;;;;14.25;9.48;;;;;;;9.49;100.00;100495.41;6095469;23;20076;-75
2023/10/24 06:09:55;;;;;;;13.30;9.00;;;;;;;9.51;100.00;100505.81;6073536;23;20069;-78
2023/10/24 06:12:20;;;;;;;12.48;8.77;;;;;;;9.49;100.00;100503.44;6072217;23;20040;-79
2023/10/24 06:14:46;;;;;;;;;;;;;;;9.49;100.00;100500.75;6098856;23;20063;-74
2023/10/24 06:17:17;;;;;;;12.32;7.97;;;;;;;9.47;100.00;100500.19;6121687;23;19909;-75
2023/10/24 06:19:48;;;;;;;14.57;9.05;;;;;;;9.47;100.00;100497.53;6098080;23;20006;-71
2023/10/24 06:22:15;;;;;;;15.23;9.70;;;;;;;9.47;100.00;100486.03;6146658;23;20048;-73
2023/10/24 06:24:41;;;;;;;16.08;10.88;;;;;;;9.48;100.00;100482.28;6096439;23;20028;-74
2023/10/24 06:27:09;;;;;;;15.20;9.70;;;;;;;9.47;100.00;100476.13;6096657;23;20013;-77
2023/10/24 06:29:34;;;;;;;16.15;10.07;;;;;;;9.49;100.00;100479.38;6120912;23;20321;-75
2023/10/24 06:32:00;;;;;;;14.73;10.98;;;;;;;9.47;100.00;100464.66;6096691;23;20523;-74
2023/10/24 06:34:26;;;;;;;18.00;11.13;;;;;;;9.49;100.00;100462.53;6122110;23;20538;-76
2023/10/24 06:36:52;;;;;;;16.70;11.40;;;;;;;9.47;100.00;100460.09;6096221;23;20101;-73
2023/10/24 06:39:18;;;;;;;16.38;10.50;;;;;;;9.51;100.00;100469.19;6095406;23;20037;-74
2023/10/24 06:41:45;;;;;;;16.10;11.57;;;;;;;9.52;100.00;100462.78;6120833;23;20013;-76
2023/10/24 06:44:21;;;;;;;18.75;12.43;;;;;;;9.54;100.00;100462.50;6075004;23;20064;-76
2023/10/24 06:46:47;;;;;;;16.98;12.32;;;;;;;9.52;100.00;100457.44;6097242;23;20482;-73
2023/10/24 06:49:12;;;;;;;16.80;11.68;;;;;;;9.54;100.00;100471.31;6096955;23;20009;-73
2023/10/24 06:51:38;;;;;;;16.38;10.93;;;;;;;9.55;100.00;100467.59;6071093;23;20036;-73
2023/10/24 06:54:04;;;;;;;14.63;11.05;;;;;;;9.58;100.00;100477.75;6097114;23;20088;-74
2023/10/24 06:56:29;;;;;;;17.55;12.05;;;;;;;9.57;100.00;100467.31;6072373;23;20021;-74
2023/10/24 06:58:55;;;;;;;18.20;11.52;;;;;;;9.57;100.00;100470.00;6121690;23;20511;-75
2023/10/24 07:01:21;;;;;;;20.58;12.60;;;;;;;9.57;100.00;100465.44;6120304;23;20021;-74
2023/10/24 07:03:47;;;;;;;16.83;11.27;;;;;;;9.58;100.00;100464.38;6096894;23;20241;-73
2023/10/24 07:06:13;;;;;;;17.50;11.82;;;;;;;9.58;100.00;100456.34;6120444;23;20084;-73
2023/10/24 07:08:40;;;;;;;18.50;11.65;;;;;;;9.59;100.00;100451.81;6096711;23;20592;-73
2023/10/24 07:11:06;;;;;;;16.20;11.15;;;;;;;9.61;100.00;100446.19;6120958;23;20017;-74
2023/10/24 07:13:31;;;;;;;19.20;11.52;;;;;;;9.61;100.00;100433.63;6147347;23;20431;-73
2023/10/24 07:15:57;;;;;;;21.25;12.35;;;;;;;9.61;100.00;100428.28;6096567;23;20069;-73
2023/10/24 07:18:23;;;;;;;22.25;14.20;;;;;;;9.62;100.00;100429.06;6096431;23;20013;-74
2023/10/24 07:20:48;;;;;;;17.73;11.32;;;;;;;9.63;100.00;100441.41;6119901;23;20021;-74
2023/10/24 07:23:14;;;;;;;14.38;11.30;;;;;;;9.65;100.00;100447.25;6097086;23;20013;-73
2023/10/24 07:25:41;;;;;;;15.23;11.68;;;;;;;9.69;100.00;100443.00;6095891;23;20021;-75
2023/10/24 07:28:06;;;;;;;16.45;10.70;;;;;;;9.71;100.00;100451.53;6096988;23;20021;-74
2023/10/24 07:30:32;;;;;;;17.85;11.73;;;;;;;9.71;100.00;100449.66;6120272;23;20068;-73
2023/10/24 07:32:57;;;;;;;14.38;10.20;;;;;;;9.71;100.00;100455.00;6096426;23;20148;-73
2023/10/24 07:35:23;;;;;;;19.45;11.40;;;;;;;9.71;100.00;100456.88;6146686;23;20020;-74
2023/10/24 07:37:49;;;;;;;15.70;10.25;;;;;;;9.73;100.00;100465.44;6097647;23;20010;-74
2023/10/24 07:40:16;;;;;;;17.20;11.73;;;;;;;9.72;100.00;100477.19;6122127;23;20080;-74
2023/10/24 07:42:41;;;;;;;;;;;;;;;9.72;100.00;100483.34;6147183;23;20017;-73
2023/10/24 07:45:07;;;;;;;17.35;10.48;;;;;;;9.72;100.00;100471.84;6096198;23;19916;-74
2023/10/24 07:47:33;;;;;;;19.10;11.57;;;;;;;9.69;100.00;100478.53;6120004;23;20017;-75
2023/10/24 07:49:59;;;;;;;19.33;12.23;;;;;;;9.72;100.00;100478.00;6097424;23;20017;-73
2023/10/24 07:52:26;;;;;;;17.13;10.80;;;;;;;9.70;100.00;100469.44;6093701;23;20013;-75
2023/10/24 07:54:51;;;;;;;16.40;10.55;;;;;;;9.71;100.00;100462.22;6096746;23;20017;-74
2023/10/24 07:57:17;;;;;;;17.58;10.80;;;;;;;9.71;100.00;100460.34;6096627;23;20032;-73
2023/10/24 07:59:44;;;;;;;15.20;11.00;;;;;;;9.69;100.00;100451.00;6121644;23;20067;-76
2023/10/24 08:02:10;;;;;;;14.68;10.80;;;;;;;9.70;100.00;100449.94;6095876;23;20040;-75
2023/10/24 08:04:35;;;;;;;15.35;11.73;;;;;;;9.72;100.00;100451.25;6096077;23;20527;-75
2023/10/24 08:07:03;;;;;;;20.00;11.80;;;;;;;9.68;100.00;100454.72;6146518;23;20009;-74
2023/10/24 08:09:28;;;;;;;16.65;11.02;;;;;;;9.72;100.00;100455.81;6096225;23;20100;-76
2023/10/24 08:11:54;;;;;;;15.80;10.93;;;;;;;9.73;100.00;100454.72;6096681;23;20411;-75
2023/10/24 08:14:19;;;;;;;17.42;10.85;;;;;;;9.73;100.00;100452.06;6121823;23;20498;-75
2023/10/24 08:16:45;;;;;;;16.75;11.50;;;;;;;9.72;100.00;100442.44;6095570;23;20021;-76
2023/10/24 08:19:11;;;;;;;19.42;11.90;;;;;;;9.71;100.00;100441.63;6121659;23;20040;-74
2023/10/24 08:21:37;;;;;;;;;;;;;;;9.72;100.00;100445.09;6120909;23;20403;-73
2023/10/24 08:24:03;;;;;;;18.38;11.68;;;;;;;9.70;100.00;100441.91;6121604;23;19912;-76
2023/10/24 08:26:28;;;;;;;14.68;11.00;;;;;;;9.73;100.00;100441.34;6095620;23;20013;-79
2023/10/24 08:28:54;;;;;;;17.70;10.43;;;;;;;9.75;100.00;100444.56;6121402;23;20337;-75
2023/10/24 08:31:20;;;;;;;21.35;11.38;;;;;;;9.73;100.00;100436.00;6095530;23;20123;-79
2023/10/24 08:33:45;;;;;;;17.00;11.20;;;;;;;9.76;100.00;100427.47;6072744;23;20017;-76
2023/10/24 08:36:11;;;;;;;19.27;12.43;;;;;;;9.75;100.00;100429.31;6095587;23;20096;-76
2023/10/24 08:38:37;;;;;;;18.90;11.98;;;;;;;9.76;100.00;100432.81;6120744;23;20048;-74
2023/10/24 08:41:03;;;;;;;15.98;10.85;;;;;;;9.78;100.00;100430.66;6096367;23;20388;-75
2023/10/24 08:43:29;;;;;;;17.90;12.23;;;;;;;9.78;100.00;100427.97;6071721;23;20023;-73
2023/10/24 08:45:56;;;;;;;21.30;12.85;;;;;;;9.77;100.00;100426.38;6120157;23;20409;-77
2023/10/24 08:48:24;;;;;;;21.00;12.63;;;;;;;9.78;100.00;100433.34;6097345;23;20072;-76
2023/10/24 08:50:50;;;;;;;17.45;12.18;;;;;;;9.77;100.00;100424.50;6072535;23;20021;-76
2023/10/24 08:53:16;;;;;;;19.00;11.65;;;;;;;9.79;100.00;100418.88;6096511;23;20010;-73
2023/10/24 08:55:49;;;;;;;16.40;12.60;;;;;;;9.82;100.00;100416.47;6096630;23;20013;-76
2023/10/24 08:58:16;;;;;;;17.50;11.18;;;;;;;9.86;100.00;100422.06;6121616;23;20016;-73
2023/10/24 09:00:43;;;;;;;18.25;12.23;;;;;;;9.88;100.00;100424.47;6120616;23;20073;-76
2023/10/24 09:03:09;;;;;;;;;;;;;;;9.90;100.00;100425.00;6094973;23;20021;-74
2023/10/24 09:05:38;;;;;;;18.58;11.63;;;;;;;9.89;100.00;100423.38;6118600;23;19912;-77
2023/10/24 09:08:04;;;;;;;23.23;12.52;;;;;;;9.93;100.00;100411.88;6094159;23;20013;-74
2023/10/24 09:10:31;;;;;;;16.42;11.95;;;;;;;9.94;100.00;100394.75;6122222;23;20112;-75
2023/10/24 09:12:57;;;;;;;14.65;11.85;;;;;;;9.98;100.00;100392.34;6098817;23;20044;-75
2023/10/24 09:15:23;;;;;;;21.92;11.48;;;;;;;9.97;100.00;100394.22;6073944;23;20021;-74
2023/10/24 09:17:49;;;;;;;18.77;12.63;;;;;;;10.03;100.00;100403.84;6075076;23;20514;-78
2023/10/24 09:20:18;;;;;;;17.63;11.10;;;;;;;10.02;100.00;100391.50;6122913;23;20005;-78
2023/10/24 09:22:44;;;;;;;18.88;12.10;;;;;;;10.03;100.00;100382.44;6122740;23;20083;-73
2023/10/24 09:25:10;;;;;;;;;;;;;;;10.05;100.00;100390.97;6123054;23;20019;-75
2023/10/24 09:27:36;;;;;;;17.23;11.00;;;;;;;10.07;100.00;100399.50;6098039;23;19979;-76
2023/10/24 09:30:11;;;;;;;18.40;11.25;;;;;;;10.09;100.00;100402.75;6149473;23;20108;-75
2023/10/24 09:32:41;;;;;;;18.50;12.25;;;;;;;10.12;100.00;100396.81;6122262;23;20016;-76
2023/10/24 09:35:08;;;;;;;19.58;11.38;;;;;;;10.13;100.00;100395.75;6072906;23;20478;-78
2023/10/24 09:37:37;;;;;;;17.13;11.82;;;;;;;10.18;100.00;100391.47;6071054;23;20017;-74
2023/10/24 09:40:04;;;;;;;16.20;11.93;;;;;;;10.20;100.00;100391.97;6098506;23;20013;-76
2023/10/24 09:42:31;;;;;;;17.77;11.18;;;;;;;10.23;100.00;100389.59;6073140;23;20084;-76
2023/10/24 09:45:00;;;;;;;17.90;12.05;;;;;;;10.29;100.00;100396.50;6123335;23;20009;-78
2023/10/24 09:47:27;;;;;;;17.13;11.40;;;;;;;10.31;100.00;100398.91;6123047;23;20021;-79
2023/10/24 09:49:59;;;;;;;17.08;12.27;;;;;;;10.30;100.00;100398.13;6099319;23;20005;-75
2023/10/24 09:52:28;;;;;;;18.38;12.68;;;;;;;10.31;100.00;100405.06;6122346;23;20088;-77
2023/10/24 09:54:55;;;;;;;16.05;11.63;;;;;;;10.32;100.00;100408.53;6074243;23;20017;-74
2023/10/24 09:57:22;;;;;;;18.50;11.82;;;;;;;10.32;100.00;100409.34;6073165;23;20013;-77
2023/10/24 09:59:56;;;;;;;17.45;10.65;;;;;;;10.34;100.00;100401.03;6074777;23;20507;-78
2023/10/24 10:02:26;;;;;;;19.00;11.70;;;;;;;10.38;100.00;100404.75;6073600;23;20022;-78
2023/10/24 10:04:52;;;;;;;19.35;12.25;;;;;;;10.42;100.00;100405.78;6074354;23;20036;-78
2023/10/24 10:07:20;;;;;;;18.77;11.75;;;;;;;10.47;100.00;100403.09;6097499;23;20457;-78
2023/10/24 10:09:50;;;;;;;17.80;11.85;;;;;;;10.51;100.00;100411.38;6098264;23;20025;-77
2023/10/24 10:12:18;;;;;;;17.42;10.98;;;;;;;10.55;100.00;100407.06;6073639;23;20019;-78
2023/10/24 10:15:06;;;;;;;17.50;12.70;;;;;;;10.56;100.00;100406.78;6073724;23;20013;-74
2023/10/24 10:18:12;;;;;;;14.10;11.30;;;;;;;10.59;100.00;100411.59;6097810;23;20043;-80
2023/10/24 10:20:51;;;;;;;14.65;10.18;;;;;;;10.63;100.00;100401.13;6034777;23;20017;-77
2023/10/24 10:23:16;;;;;;;16.77;10.48;;;;;;;10.71;100.00;100402.44;6096946;23;20427;-75
2023/10/24 10:26:04;;;;;;;19.35;12.35;;;;;;;10.73;100.00;100389.56;6121787;23;20013;-77
2023/10/24 10:28:40;;;;;;;17.15;12.07;;;;;;;10.77;100.00;100390.56;6076622;23;20075;-76
2023/10/24 10:31:43;;;;;;;14.65;11.32;;;;;;;10.78;100.00;100381.47;6122357;23;20009;-76
2023/10/24 10:34:11;;;;;;;15.43;10.43;;;;;;;10.83;100.00;100389.47;6089204;23;20020;-76
2023/10/24 10:36:39;;;;;;;14.13;10.27;;;;;;;10.84;100.00;100391.09;6095101;23;20049;-77
2023/10/24 10:39:10;;;;;;;13.55;10.15;;;;;;;10.82;100.00;100382.50;6097634;23;20013;-75
2023/10/24 10:41:38;;;;;;;15.82;10.95;;;;;;;10.85;100.00;100385.44;6121929;23;20100;-74
2023/10/24 10:44:33;;;;;;;15.27;10.13;;;;;;;10.86;100.00;100379.00;6097009;23;20017;-75
2023/10/24 10:47:02;;;;;;;14.63;10.20;;;;;;;10.89;100.00;100380.31;6146078;23;20049;-77
2023/10/24 10:49:39;;;;;;;18.00;10.93;;;;;;;10.92;100.00;100385.91;6118287;23;20395;-74
2023/10/24 10:52:27;;;;;;;14.27;11.15;;;;;;;10.98;100.00;100381.31;6071500;23;20024;-76
2023/10/24 10:55:15;;;;;;;13.80;9.77;;;;;;;10.98;100.00;100375.97;6095511;23;20487;-76
2023/10/24 10:58:03;;;;;;;13.38;11.00;;;;;;;11.05;100.00;100375.66;6071427;23;20096;-76
2023/10/24 11:00:42;;;;;;;14.00;10.65;;;;;;;11.08;100.00;100361.66;6072212;23;20064;-74
2023/10/24 11:03:27;;;;;;;13.43;10.68;;;;;;;11.05;100.00;100355.00;6096721;23;20025;-75
2023/10/24 11:05:54;;;;;;;17.52;10.68;;;;;;;11.08;100.00;100354.44;6071719;23;20048;-76
2023/10/24 11:08:22;;;;;;;16.05;10.77;;;;;;;11.14;100.00;100347.94;6096925;23;20419;-75
2023/10/24 11:10:56;;;;;;;12.38;10.80;;;;;;;11.17;100.00;100351.94;6095873;23;20041;-76
2023/10/24 11:13:38;;;;;;;15.10;10.25;;;;;;;11.21;100.00;100361.81;6071812;23;20064;-77
2023/10/24 11:16:06;;;;;;;17.10;11.45;;;;;;;11.23;100.00;100358.03;6095596;23;20076;-75